Time;durP1;ratioP1;P1;durP2;ratioP2;P2;SDS_P1;SDS_P2;PMS_P1;PMS_P2;Temp;Humidity;BMP_temperature;BMP_pressure;BME280_temperature;BME280_humidity;BME280_pressure;Samples;Min_cycle;Max_cycle;Signal;HPM_P1;HPM_P2
2021/07/20 00:00:45;;;;;;;12.35;8.43;;;19.10;81.60;;;;;;5005297;28;20053;-85
2021/07/20 00:03:11;;;;;;;13.05;8.57;;;19.10;82.00;;;;;;5014264;28;20037;-86
2021/07/20 00:05:42;;;;;;;13.23;9.02;;;19.00;82.20;;;;;;5016252;28;20491;-86
2021/07/20 00:08:09;;;;;;;;;;;19.00;82.00;;;;;;5000489;28;20383;-86
2021/07/20 00:10:56;;;;;;;11.27;8.32;;;19.00;82.30;;;;;;5010567;28;19909;-85
2021/07/20 00:13:21;;;;;;;13.90;8.88;;;18.90;82.30;;;;;;5023446;28;20033;-86
2021/07/20 00:15:48;;;;;;;16.02;9.70;;;18.90;82.10;;;;;;5021373;28;20097;-86
2021/07/20 00:18:16;;;;;;;13.68;8.88;;;18.90;82.60;;;;;;5016745;28;20034;-85
2021/07/20 00:20:43;;;;;;;13.40;9.10;;;18.80;82.60;;;;;;5011379;28;20494;-85
2021/07/20 00:23:10;;;;;;;15.90;9.43;;;18.80;82.20;;;;;;5022152;28;20029;-85
2021/07/20 00:25:36;;;;;;;17.23;9.57;;;18.80;82.90;;;;;;5029238;28;20030;-85
2021/07/20 00:28:02;;;;;;;13.73;9.05;;;18.80;82.70;;;;;;4997880;28;20400;-86
2021/07/20 00:30:29;;;;;;;13.77;9.23;;;18.70;82.70;;;;;;5015215;28;20026;-85
2021/07/20 00:32:54;;;;;;;13.55;8.75;;;18.70;82.50;;;;;;5013642;28;20022;-86
2021/07/20 00:35:20;;;;;;;14.07;8.93;;;18.70;83.10;;;;;;5013631;28;20037;-86
2021/07/20 00:37:46;;;;;;;14.20;9.13;;;18.70;83.20;;;;;;4997459;28;20064;-86
2021/07/20 00:40:16;;;;;;;13.20;8.88;;;18.60;83.00;;;;;;4997613;28;20037;-86
2021/07/20 00:42:42;;;;;;;14.70;8.48;;;18.60;83.10;;;;;;5030412;28;20029;-86
2021/07/20 00:45:12;;;;;;;12.90;8.95;;;18.60;83.30;;;;;;5028869;28;20163;-86
2021/07/20 00:47:37;;;;;;;12.43;8.77;;;18.50;83.60;;;;;;5030317;28;20101;-85
2021/07/20 00:50:06;;;;;;;13.25;8.93;;;18.60;83.50;;;;;;5016552;28;20100;-86
2021/07/20 00:52:32;;;;;;;14.25;9.75;;;18.50;83.40;;;;;;5031059;28;20086;-85
2021/07/20 00:54:58;;;;;;;13.35;8.82;;;18.40;83.70;;;;;;5011782;28;20046;-85
2021/07/20 00:57:24;;;;;;;15.00;9.35;;;18.40;83.50;;;;;;5026005;28;20025;-85
2021/07/20 00:59:50;;;;;;;13.38;9.05;;;18.40;83.40;;;;;;5028453;28;20026;-86
2021/07/20 01:02:16;;;;;;;15.95;9.40;;;18.40;83.80;;;;;;5016707;28;20041;-85
2021/07/20 01:04:42;;;;;;;15.25;9.57;;;18.30;83.80;;;;;;5029704;28;20030;-85
2021/07/20 01:07:08;;;;;;;15.50;9.70;;;18.30;84.20;;;;;;5016718;28;20021;-86
2021/07/20 01:09:35;;;;;;;14.32;9.27;;;18.30;84.70;;;;;;5016291;28;20067;-85
2021/07/20 01:12:01;;;;;;;17.05;10.15;;;18.20;84.30;;;;;;5015710;28;20527;-86
2021/07/20 01:14:28;;;;;;;13.77;9.20;;;18.20;85.30;;;;;;4998845;28;20026;-85
2021/07/20 01:16:56;;;;;;;14.75;9.80;;;18.20;84.30;;;;;;5016304;28;20028;-85
2021/07/20 01:19:26;;;;;;;15.88;9.60;;;18.10;84.30;;;;;;4994387;28;20029;-85
2021/07/20 01:21:53;;;;;;;13.55;8.80;;;18.10;84.70;;;;;;5026039;28;20026;-86
2021/07/20 01:24:19;;;;;;;14.18;9.57;;;18.10;85.00;;;;;;5000245;28;20071;-86
2021/07/20 01:26:46;;;;;;;15.15;9.50;;;18.10;85.00;;;;;;5016170;28;20025;-86
2021/07/20 01:29:14;;;;;;;16.02;9.80;;;18.00;85.20;;;;;;5016062;28;20041;-86
2021/07/20 01:31:43;;;;;;;14.55;9.82;;;18.00;85.20;;;;;;5015999;28;20096;-86
2021/07/20 01:34:12;;;;;;;15.82;10.18;;;17.90;85.20;;;;;;5015986;28;20025;-86
2021/07/20 01:36:39;;;;;;;17.35;10.60;;;17.90;85.20;;;;;;5033759;28;20025;-86
2021/07/20 01:39:08;;;;;;;14.77;9.95;;;17.90;85.30;;;;;;5015979;28;20049;-86
2021/07/20 01:41:36;;;;;;;15.73;10.10;;;17.90;85.60;;;;;;5016599;28;20386;-86
2021/07/20 01:44:05;;;;;;;15.68;9.95;;;17.90;85.80;;;;;;5033474;28;20498;-86
2021/07/20 01:46:33;;;;;;;15.20;10.00;;;17.80;85.80;;;;;;5015795;28;20075;-87
2021/07/20 01:49:01;;;;;;;14.55;10.25;;;17.80;85.70;;;;;;5015987;28;20064;-86
2021/07/20 01:51:27;;;;;;;15.68;10.30;;;17.80;85.40;;;;;;5033349;28;20033;-86
2021/07/20 01:53:54;;;;;;;14.18;9.40;;;17.70;86.00;;;;;;4999677;28;20348;-87
2021/07/20 01:56:21;;;;;;;15.65;10.25;;;17.70;86.30;;;;;;4999855;28;20018;-86
2021/07/20 01:58:47;;;;;;;13.48;8.90;;;17.60;86.20;;;;;;5015791;28;20022;-86
2021/07/20 02:01:19;;;;;;;14.35;9.63;;;17.60;86.40;;;;;;5016950;28;20378;-87
2021/07/20 02:04:42;;;;;;;14.25;8.90;;;17.60;86.50;;;;;;5030074;28;20379;-87
2021/07/20 02:09:55;;;;;;;14.98;9.57;;;17.50;87.20;;;;;;5040192;28;20457;-87
2021/07/20 02:12:32;;;;;;;15.27;10.35;;;17.50;87.00;;;;;;5008654;28;20029;-87
2021/07/20 02:15:00;;;;;;;15.52;9.85;;;17.50;87.20;;;;;;5029192;28;20030;-87
2021/07/20 02:17:27;;;;;;;15.18;9.30;;;17.40;87.20;;;;;;5022351;28;20183;-86
2021/07/20 02:20:06;;;;;;;14.48;9.15;;;17.50;87.00;;;;;;4999415;28;20133;-87
2021/07/20 02:22:33;;;;;;;13.48;9.68;;;17.40;87.30;;;;;;5015652;28;20037;-86
2021/07/20 02:24:59;;;;;;;14.30;8.98;;;17.30;87.50;;;;;;5017952;28;20139;-87
2021/07/20 02:27:26;;;;;;;16.65;10.30;;;17.40;87.50;;;;;;4985561;28;20034;-86
2021/07/20 02:29:58;;;;;;;15.10;10.48;;;17.30;87.70;;;;;;5018233;28;20453;-86
2021/07/20 02:32:26;;;;;;;14.15;9.65;;;17.30;87.50;;;;;;5018243;28;20537;-86
2021/07/20 02:34:54;;;;;;;15.73;9.95;;;17.30;87.90;;;;;;5036190;28;20383;-86
2021/07/20 02:37:21;;;;;;;15.90;10.88;;;17.30;88.10;;;;;;5035828;28;20531;-86
2021/07/20 02:39:47;;;;;;;16.45;10.30;;;17.20;88.20;;;;;;5018049;28;20404;-86
2021/07/20 02:42:14;;;;;;;17.00;10.20;;;17.20;88.10;;;;;;5018280;28;20044;-86
2021/07/20 02:44:40;;;;;;;16.77;10.07;;;17.20;88.30;;;;;;5018122;28;20049;-86
2021/07/20 02:47:06;;;;;;;17.95;9.88;;;17.20;88.40;;;;;;5036176;28;20378;-86
2021/07/20 02:49:36;;;;;;;16.05;9.65;;;17.20;88.40;;;;;;5017898;28;20025;-86
2021/07/20 02:52:02;;;;;;;14.85;9.60;;;17.10;88.30;;;;;;5018050;28;20542;-87
2021/07/20 02:54:28;;;;;;;16.63;10.50;;;17.10;88.10;;;;;;5018134;28;20392;-86
2021/07/20 02:56:54;;;;;;;13.90;9.50;;;17.10;88.50;;;;;;5017704;28;20390;-86
2021/07/20 02:59:24;;;;;;;16.27;10.45;;;17.10;88.80;;;;;;5017877;28;20040;-86
2021/07/20 03:01:56;;;;;;;15.18;9.68;;;17.00;88.90;;;;;;5006457;28;20029;-86
2021/07/20 03:04:23;;;;;;;14.85;10.35;;;17.00;89.20;;;;;;5035390;28;20471;-86
2021/07/20 03:06:53;;;;;;;15.90;10.13;;;17.00;89.20;;;;;;5017511;28;20026;-87
2021/07/20 03:09:24;;;;;;;17.27;9.70;;;16.90;88.70;;;;;;5017457;28;20037;-86
2021/07/20 03:11:52;;;;;;;;;;;16.90;88.80;;;;;;5017812;28;20383;-86
2021/07/20 03:14:20;;;;;;;15.02;9.30;;;16.90;88.90;;;;;;5003458;28;19909;-86
2021/07/20 03:16:47;;;;;;;14.52;9.88;;;16.90;89.20;;;;;;5034108;28;20116;-86
2021/07/20 03:19:15;;;;;;;15.02;9.45;;;16.90;89.30;;;;;;5001082;28;20512;-86
2021/07/20 03:21:42;;;;;;;16.35;9.93;;;16.80;89.00;;;;;;5017751;28;20160;-86
2021/07/20 03:24:09;;;;;;;15.65;9.90;;;16.80;89.30;;;;;;4997604;28;20041;-87
2021/07/20 03:26:35;;;;;;;15.18;9.90;;;16.80;89.40;;;;;;5007982;28;20040;-86
2021/07/20 03:29:05;;;;;;;14.80;9.65;;;16.80;88.90;;;;;;5003693;28;20048;-86
2021/07/20 03:31:33;;;;;;;14.73;9.90;;;16.70;88.80;;;;;;5017110;28;20024;-87
2021/07/20 03:33:59;;;;;;;15.25;9.55;;;16.70;88.80;;;;;;5017487;28;20064;-86
2021/07/20 03:36:26;;;;;;;13.70;9.10;;;16.70;88.90;;;;;;5016303;28;20018;-86
2021/07/20 03:38:52;;;;;;;16.27;9.95;;;16.70;88.90;;;;;;5017133;28;20038;-86
2021/07/20 03:41:19;;;;;;;15.00;9.77;;;16.60;88.30;;;;;;5000719;28;20018;-86
2021/07/20 03:43:45;;;;;;;14.40;9.15;;;16.60;88.70;;;;;;5000207;28;20568;-86
2021/07/20 03:46:13;;;;;;;15.55;9.60;;;16.60;88.80;;;;;;5016848;28;20025;-86
2021/07/20 03:48:40;;;;;;;16.88;10.45;;;16.60;88.70;;;;;;5016975;28;20025;-86
2021/07/20 03:51:06;;;;;;;14.60;9.02;;;16.60;88.70;;;;;;5000704;28;20022;-86
2021/07/20 03:53:33;;;;;;;15.98;9.77;;;16.50;88.90;;;;;;5017332;28;20052;-86
2021/07/20 03:56:01;;;;;;;14.35;9.95;;;16.50;89.00;;;;;;5016895;28;20068;-86
2021/07/20 03:58:27;;;;;;;15.13;10.15;;;16.50;89.30;;;;;;5020832;28;20025;-86
2021/07/20 04:00:55;;;;;;;14.18;9.45;;;16.50;89.30;;;;;;5016632;28;20036;-87
2021/07/20 04:03:22;;;;;;;16.77;9.23;;;16.50;89.20;;;;;;5016548;28;20028;-87
2021/07/20 04:06:13;;;;;;;14.10;9.07;;;16.50;89.10;;;;;;5000244;28;20501;-87
2021/07/20 04:08:39;;;;;;;;;;;16.40;89.20;;;;;;5017320;28;20060;-87
2021/07/20 04:11:05;;;;;;;13.80;9.25;;;16.40;89.30;;;;;;5033069;28;19909;-87
2021/07/20 04:13:32;;;;;;;14.90;9.23;;;16.40;89.20;;;;;;4996746;28;20018;-86
2021/07/20 04:16:01;;;;;;;14.15;8.80;;;16.30;89.60;;;;;;5019163;28;20532;-87
2021/07/20 04:18:29;;;;;;;14.93;9.15;;;16.30;89.70;;;;;;5051540;28;20505;-89
2021/07/20 04:20:56;;;;;;;15.27;9.48;;;16.30;89.90;;;;;;5015491;28;20029;-88
2021/07/20 04:23:25;;;;;;;12.95;8.80;;;16.30;90.00;;;;;;5031760;28;20076;-86
2021/07/20 04:25:54;;;;;;;16.08;9.88;;;16.30;90.00;;;;;;5013382;28;20036;-86
2021/07/20 04:28:20;;;;;;;17.08;9.75;;;16.30;90.20;;;;;;5039353;28;20060;-86
2021/07/20 04:30:47;;;;;;;15.55;9.55;;;16.30;90.20;;;;;;5011672;28;20025;-86
2021/07/20 04:33:15;;;;;;;15.23;8.98;;;16.30;90.40;;;;;;5002400;28;20033;-85
2021/07/20 04:35:42;;;;;;;17.02;9.63;;;16.30;90.40;;;;;;5014782;28;20053;-86
2021/07/20 04:38:11;;;;;;;15.40;9.20;;;16.30;90.50;;;;;;5019707;28;20029;-86
2021/07/20 04:40:40;;;;;;;15.48;8.95;;;16.30;90.60;;;;;;5034439;28;20487;-86
2021/07/20 04:43:07;;;;;;;14.63;8.77;;;16.20;90.60;;;;;;5002345;28;20033;-86
2021/07/20 04:45:38;;;;;;;13.57;9.25;;;16.20;90.60;;;;;;5017374;28;20399;-86
2021/07/20 04:48:06;;;;;;;17.00;9.45;;;16.20;90.70;;;;;;5019423;28;20536;-87
2021/07/20 04:50:32;;;;;;;15.75;8.68;;;16.30;90.70;;;;;;5002111;28;20056;-87
2021/07/20 04:53:02;;;;;;;12.98;8.25;;;16.20;90.70;;;;;;5016142;28;20045;-87
2021/07/20 04:55:30;;;;;;;12.60;8.27;;;16.20;90.70;;;;;;5016966;28;20493;-87
2021/07/20 04:57:56;;;;;;;11.52;7.63;;;16.20;90.80;;;;;;5017141;28;20075;-85
2021/07/20 05:00:22;;;;;;;15.10;8.85;;;16.20;90.90;;;;;;5016596;28;20455;-86
2021/07/20 05:02:48;;;;;;;12.75;8.25;;;16.20;90.90;;;;;;5016176;28;20025;-85
2021/07/20 05:05:16;;;;;;;14.45;8.77;;;16.30;91.00;;;;;;5000641;28;20029;-86
2021/07/20 05:07:42;;;;;;;11.65;7.88;;;16.20;91.20;;;;;;5015616;28;20251;-86
2021/07/20 05:10:12;;;;;;;13.50;7.97;;;16.20;91.20;;;;;;5015631;28;20100;-86
2021/07/20 05:12:38;;;;;;;13.35;8.63;;;16.30;91.20;;;;;;5015334;28;20022;-86
2021/07/20 05:15:04;;;;;;;12.77;8.05;;;16.30;91.20;;;;;;5015382;28;20382;-86
2021/07/20 05:17:31;;;;;;;12.77;7.95;;;16.30;91.20;;;;;;5015142;28;20036;-85
2021/07/20 05:19:58;;;;;;;11.73;7.40;;;16.30;91.20;;;;;;5015352;28;20021;-86
2021/07/20 05:22:26;;;;;;;11.32;7.55;;;16.30;91.20;;;;;;5033123;28;20025;-85
2021/07/20 05:24:51;;;;;;;13.93;8.30;;;16.30;91.30;;;;;;5015336;28;20440;-86
2021/07/20 05:27:55;;;;;;;12.48;7.70;;;16.40;91.40;;;;;;5033106;28;20344;-86
2021/07/20 05:30:21;;;;;;;11.85;7.90;;;16.40;91.60;;;;;;5014168;28;20048;-86
2021/07/20 05:32:50;;;;;;;10.90;7.38;;;16.40;91.60;;;;;;5003058;28;20029;-87
2021/07/20 05:35:18;;;;;;;11.30;7.25;;;16.50;91.70;;;;;;5018672;28;20425;-86
2021/07/20 05:37:46;;;;;;;11.35;7.53;;;16.50;91.70;;;;;;5014453;28;20042;-87
2021/07/20 05:40:15;;;;;;;9.98;7.05;;;16.50;91.80;;;;;;5014692;28;20031;-87
2021/07/20 05:42:42;;;;;;;10.38;6.82;;;16.50;91.80;;;;;;5032987;28;20051;-87
2021/07/20 05:45:11;;;;;;;12.05;7.40;;;16.50;91.80;;;;;;5096336;22;20057;-84
2021/07/20 05:47:40;;;;;;;11.43;6.65;;;16.60;91.90;;;;;;4997879;28;20482;-84
2021/07/20 05:50:06;;;;;;;10.23;6.78;;;16.60;91.90;;;;;;5017925;28;20471;-85
2021/07/20 05:52:35;;;;;;;10.32;6.90;;;16.60;91.90;;;;;;4958521;28;20106;-85
2021/07/20 05:55:04;;;;;;;9.80;6.10;;;16.70;91.70;;;;;;4990027;28;20056;-85
2021/07/20 05:57:31;;;;;;;10.57;6.28;;;16.70;91.80;;;;;;4995044;28;20037;-85
2021/07/20 05:59:57;;;;;;;9.77;6.28;;;16.70;91.70;;;;;;4977902;28;20034;-85
2021/07/20 06:02:24;;;;;;;9.43;6.35;;;16.70;91.80;;;;;;4991916;28;20087;-84
2021/07/20 06:04:51;;;;;;;9.70;5.75;;;16.80;91.70;;;;;;5002629;28;20478;-84
2021/07/20 06:07:18;;;;;;;8.88;5.65;;;16.80;91.80;;;;;;4983126;28;20116;-84
2021/07/20 06:09:45;;;;;;;8.52;5.72;;;16.80;91.80;;;;;;4977567;28;20521;-84
2021/07/20 06:12:13;;;;;;;8.98;6.18;;;16.90;91.80;;;;;;4994194;28;20489;-84
2021/07/20 06:14:40;;;;;;;9.32;5.97;;;16.90;91.80;;;;;;5008372;28;20026;-84
2021/07/20 06:17:06;;;;;;;8.90;5.85;;;16.90;91.70;;;;;;4986854;28;20033;-84
2021/07/20 06:19:37;;;;;;;8.60;5.85;;;17.00;91.70;;;;;;5010200;28;20495;-83
2021/07/20 06:22:05;;;;;;;;;;;17.00;91.60;;;;;;4972890;28;20503;-83
2021/07/20 06:24:34;;;;;;;8.50;5.13;;;17.10;91.50;;;;;;4991080;28;19921;-84
2021/07/20 06:27:00;;;;;;;8.30;5.80;;;17.10;91.50;;;;;;4994489;28;20026;-84
2021/07/20 06:29:29;;;;;;;9.35;5.50;;;17.10;91.40;;;;;;4962126;28;20080;-83
2021/07/20 06:31:55;;;;;;;10.82;6.20;;;17.10;91.40;;;;;;4992770;28;20478;-83
2021/07/20 06:34:22;;;;;;;8.85;5.43;;;17.20;91.50;;;;;;4962123;28;20076;-84
2021/07/20 06:36:48;;;;;;;8.88;5.45;;;17.20;91.50;;;;;;4979227;28;20034;-84
2021/07/20 06:39:14;;;;;;;7.68;5.20;;;17.30;91.40;;;;;;4984527;28;20026;-83
2021/07/20 06:41:41;;;;;;;9.02;5.82;;;17.30;91.30;;;;;;4977488;28;20033;-83
2021/07/20 06:44:07;;;;;;;8.57;5.68;;;17.30;91.30;;;;;;4977783;28;20054;-83
2021/07/20 06:46:35;;;;;;;8.25;5.50;;;17.40;91.30;;;;;;4960289;28;20034;-83
2021/07/20 06:49:02;;;;;;;8.93;5.28;;;17.50;91.30;;;;;;4994568;28;20106;-83
2021/07/20 06:51:31;;;;;;;8.95;5.65;;;17.50;91.40;;;;;;4981339;28;20045;-83
2021/07/20 06:53:57;;;;;;;8.98;5.53;;;17.60;91.40;;;;;;4962489;28;20026;-83
2021/07/20 06:56:46;;;;;;;8.50;5.40;;;17.60;91.40;;;;;;5006293;28;20014;-83
2021/07/20 06:59:13;;;;;;;8.55;5.57;;;17.70;91.40;;;;;;4988822;28;20379;-83
2021/07/20 07:01:41;;;;;;;10.65;5.45;;;17.70;91.40;;;;;;4988327;28;20121;-83
2021/07/20 07:04:25;;;;;;;11.13;6.78;;;17.70;91.10;;;;;;4999422;28;20031;-83
2021/07/20 07:06:55;;;;;;;8.15;5.70;;;17.80;91.10;;;;;;4988514;28;20025;-83
2021/07/20 07:09:24;;;;;;;10.27;6.07;;;17.80;91.00;;;;;;4994722;28;20024;-83
2021/07/20 07:11:51;;;;;;;9.63;6.57;;;17.90;90.80;;;;;;4974533;28;20021;-82
2021/07/20 07:14:17;;;;;;;9.45;5.80;;;17.90;90.40;;;;;;5009948;28;20044;-84
2021/07/20 07:16:46;;;;;;;9.98;6.43;;;18.00;90.10;;;;;;4976647;28;20425;-84
2021/07/20 07:19:15;;;;;;;10.57;6.70;;;18.00;89.80;;;;;;4999713;28;20057;-83
2021/07/20 07:21:42;;;;;;;8.20;5.53;;;18.10;89.90;;;;;;5024203;28;20400;-81
2021/07/20 07:24:11;;;;;;;8.63;5.60;;;18.10;89.50;;;;;;5020833;28;20033;-83
2021/07/20 07:26:37;;;;;;;9.13;6.30;;;18.20;90.00;;;;;;5007698;28;20014;-83
2021/07/20 07:29:06;;;;;;;8.55;5.80;;;18.20;89.50;;;;;;4994437;28;20018;-83
2021/07/20 07:31:31;;;;;;;9.88;6.65;;;18.30;89.60;;;;;;4998101;28;20017;-82
2021/07/20 07:33:57;;;;;;;9.65;5.95;;;18.40;89.60;;;;;;4992879;28;20384;-83
2021/07/20 07:36:24;;;;;;;9.32;5.60;;;18.40;89.40;;;;;;5001845;28;20026;-83
2021/07/20 07:38:51;;;;;;;8.80;6.32;;;18.50;89.70;;;;;;5010145;28;20018;-83
2021/07/20 07:41:17;;;;;;;9.27;6.68;;;18.60;89.60;;;;;;4997525;28;20029;-83
2021/07/20 07:43:44;;;;;;;9.90;7.00;;;18.60;88.20;;;;;;4965297;28;20352;-82
2021/07/20 07:46:10;;;;;;;9.55;6.45;;;18.70;86.50;;;;;;4976557;28;20129;-82
2021/07/20 07:48:38;;;;;;;9.50;5.82;;;18.70;87.20;;;;;;4998909;28;20026;-82
2021/07/20 07:51:06;;;;;;;10.57;7.28;;;18.80;86.90;;;;;;4997297;28;20018;-82
2021/07/20 07:53:33;;;;;;;9.05;6.53;;;18.80;86.20;;;;;;5014668;28;20065;-83
2021/07/20 07:56:00;;;;;;;10.00;6.85;;;18.90;86.10;;;;;;4981476;28;20371;-82
2021/07/20 07:58:30;;;;;;;10.35;6.22;;;18.90;84.40;;;;;;5014526;28;20494;-83
2021/07/20 08:00:59;;;;;;;9.80;6.53;;;19.00;83.70;;;;;;4981652;28;20049;-82
2021/07/20 08:03:34;;;;;;;8.57;5.97;;;19.10;84.50;;;;;;5025541;28;20096;-82
2021/07/20 08:06:03;;;;;;;9.68;6.78;;;19.10;85.00;;;;;;5002521;28;20069;-83
2021/07/20 08:08:31;;;;;;;9.93;6.28;;;19.20;85.40;;;;;;4992871;28;20060;-82
2021/07/20 08:10:58;;;;;;;9.57;6.18;;;19.30;85.30;;;;;;4983808;28;20467;-82
2021/07/20 08:13:25;;;;;;;9.77;6.07;;;19.30;84.80;;;;;;4988239;28;20068;-82
2021/07/20 08:15:52;;;;;;;11.23;6.80;;;19.50;84.40;;;;;;4996304;28;20053;-82
2021/07/20 08:18:23;;;;;;;10.02;6.82;;;19.50;84.10;;;;;;4995431;28;20025;-82
2021/07/20 08:21:01;;;;;;;9.27;6.40;;;19.60;80.90;;;;;;5003347;28;20030;-82
2021/07/20 08:23:27;;;;;;;10.50;7.15;;;19.70;81.90;;;;;;4992036;28;20060;-82
2021/07/20 08:25:56;;;;;;;10.23;6.32;;;19.70;81.70;;;;;;4996377;28;20057;-82
2021/07/20 08:28:43;;;;;;;9.90;6.40;;;19.80;82.20;;;;;;4995909;28;20014;-82
2021/07/20 08:31:11;;;;;;;9.43;6.22;;;19.90;82.50;;;;;;4994788;28;20026;-82
2021/07/20 08:33:38;;;;;;;8.85;5.70;;;20.00;82.80;;;;;;4996099;28;20018;-82
2021/07/20 08:36:08;;;;;;;8.20;5.70;;;20.00;82.40;;;;;;4979918;28;20112;-82
2021/07/20 08:38:35;;;;;;;10.30;6.35;;;20.10;81.90;;;;;;4991093;28;20139;-82
2021/07/20 08:41:04;;;;;;;8.52;5.95;;;20.20;81.50;;;;;;4983232;28;20499;-82
2021/07/20 08:43:35;;;;;;;7.97;5.53;;;20.20;81.70;;;;;;5016121;28;20482;-82
2021/07/20 08:46:19;;;;;;;8.95;5.95;;;20.30;82.00;;;;;;4995249;28;20061;-82
2021/07/20 08:48:45;;;;;;;8.75;5.97;;;20.40;81.40;;;;;;4982219;28;20021;-82
2021/07/20 08:51:18;;;;;;;9.38;6.30;;;20.40;80.30;;;;;;4995788;28;20468;-82
2021/07/20 08:53:53;;;;;;;9.60;6.47;;;20.50;80.20;;;;;;5015854;28;20129;-81
2021/07/20 08:56:22;;;;;;;9.52;5.85;;;20.50;77.30;;;;;;5023776;28;20096;-80
2021/07/20 08:59:02;;;;;;;9.85;6.47;;;20.60;76.00;;;;;;5017638;28;20036;-80
2021/07/20 09:01:35;;;;;;;9.52;6.10;;;20.60;76.70;;;;;;5012531;28;20030;-81
2021/07/20 09:04:35;;;;;;;8.75;5.90;;;20.70;77.80;;;;;;4995203;28;20491;-81
2021/07/20 09:07:09;;;;;;;11.10;7.10;;;20.80;78.90;;;;;;4997918;28;20034;-80
2021/07/20 09:09:39;;;;;;;8.25;5.95;;;20.80;77.50;;;;;;5000739;28;20032;-81
2021/07/20 09:12:26;;;;;;;8.35;6.25;;;20.80;77.50;;;;;;4986310;28;20030;-81
2021/07/20 09:15:11;;;;;;;9.27;6.45;;;20.90;78.30;;;;;;4991497;28;20044;-81
2021/07/20 09:18:04;;;;;;;8.35;6.40;;;21.00;76.40;;;;;;4992780;28;20049;-81
2021/07/20 09:20:33;;;;;;;8.93;6.13;;;21.00;75.20;;;;;;5012021;28;20100;-81
2021/07/20 09:23:05;;;;;;;8.98;6.10;;;21.10;75.30;;;;;;4992156;28;20041;-81
2021/07/20 09:25:37;;;;;;;9.98;6.28;;;21.10;75.80;;;;;;4994430;28;20378;-81
2021/07/20 09:28:09;;;;;;;9.98;6.45;;;21.20;74.40;;;;;;4995034;28;20546;-81
2021/07/20 09:30:40;;;;;;;9.98;6.30;;;21.20;75.20;;;;;;5011454;28;20360;-81
2021/07/20 09:33:40;;;;;;;11.18;6.57;;;21.30;75.40;;;;;;4994619;28;20085;-81
2021/07/20 09:36:35;;;;;;;9.13;6.45;;;21.40;74.10;;;;;;5010937;28;20111;-81
2021/07/20 09:39:10;;;;;;;11.32;7.00;;;21.50;75.50;;;;;;5003523;28;20064;-81
2021/07/20 09:41:41;;;;;;;9.38;6.32;;;21.50;74.60;;;;;;4998061;28;20026;-81
2021/07/20 09:44:36;;;;;;;8.02;5.93;;;21.60;74.40;;;;;;5005335;28;20438;-81
2021/07/20 09:47:11;;;;;;;8.77;5.88;;;21.60;74.70;;;;;;4994483;28;20556;-81
2021/07/20 09:50:09;;;;;;;8.55;5.72;;;21.70;74.10;;;;;;4979679;28;20027;-81
2021/07/20 09:52:41;;;;;;;8.73;6.10;;;21.80;75.30;;;;;;4972731;28;20017;-81
2021/07/20 09:55:36;;;;;;;10.13;6.80;;;21.80;74.20;;;;;;4992401;28;20511;-81
2021/07/20 09:58:30;;;;;;;8.43;6.25;;;21.90;74.10;;;;;;4991287;28;20085;-81
2021/07/20 10:01:14;;;;;;;9.70;6.80;;;22.00;73.80;;;;;;4971267;28;20400;-81
2021/07/20 10:04:05;;;;;;;10.18;6.53;;;22.00;72.80;;;;;;4990491;28;20475;-81
2021/07/20 10:06:52;;;;;;;9.60;6.75;;;22.10;73.60;;;;;;4989214;28;20026;-81
2021/07/20 10:09:28;;;;;;;9.15;6.82;;;22.10;72.60;;;;;;4969368;28;20061;-82
2021/07/20 10:11:53;;;;;;;9.50;6.40;;;22.10;70.50;;;;;;5001258;28;20427;-81
2021/07/20 10:14:29;;;;;;;12.25;6.75;;;22.10;71.90;;;;;;4982796;28;20030;-81
2021/07/20 10:17:30;;;;;;;9.68;6.60;;;22.20;72.10;;;;;;4993711;28;20085;-81
2021/07/20 10:20:13;;;;;;;10.40;6.07;;;22.20;72.20;;;;;;4993089;28;20033;-81
2021/07/20 10:22:46;;;;;;;9.60;6.53;;;22.20;74.30;;;;;;5009075;28;20329;-82
2021/07/20 10:25:34;;;;;;;10.57;6.95;;;22.20;74.60;;;;;;4993409;28;20420;-82
2021/07/20 10:28:07;;;;;;;9.68;6.82;;;22.20;72.40;;;;;;4978616;28;20132;-81
2021/07/20 10:30:36;;;;;;;10.77;6.63;;;22.30;72.30;;;;;;5007858;28;20069;-84
2021/07/20 10:33:12;;;;;;;9.70;6.93;;;22.30;72.00;;;;;;4989194;28;20021;-84
2021/07/20 10:35:48;;;;;;;8.57;6.55;;;22.30;72.30;;;;;;4988134;28;20050;-85
2021/07/20 10:38:24;;;;;;;8.65;6.68;;;22.30;70.90;;;;;;4989904;28;20098;-84
2021/07/20 10:40:52;;;;;;;9.65;6.57;;;22.30;71.50;;;;;;4981974;28;20038;-83
2021/07/20 10:43:40;;;;;;;8.77;6.15;;;22.30;71.60;;;;;;4977035;28;20603;-83
2021/07/20 10:46:08;;;;;;;9.20;6.30;;;22.30;72.10;;;;;;4991801;28;20566;-84
2021/07/20 10:48:40;;;;;;;9.52;6.70;;;22.40;72.00;;;;;;4991054;28;20432;-82
2021/07/20 10:51:15;;;;;;;9.43;6.63;;;22.40;71.50;;;;;;5001541;28;20331;-81
2021/07/20 10:54:06;;;;;;;9.38;6.43;;;22.50;71.60;;;;;;5002190;28;20029;-81
2021/07/20 10:57:00;;;;;;;9.20;6.07;;;22.60;72.50;;;;;;5009626;28;20058;-81
2021/07/20 10:59:37;;;;;;;8.90;6.43;;;22.70;72.30;;;;;;4975542;28;20024;-81
2021/07/20 11:02:14;;;;;;;8.15;5.90;;;22.80;71.50;;;;;;4994041;28;20028;-81
2021/07/20 11:04:54;;;;;;;9.85;6.55;;;22.80;71.20;;;;;;4991824;28;20026;-81
2021/07/20 11:07:32;;;;;;;8.43;5.53;;;22.90;70.30;;;;;;4999308;28;20022;-82
2021/07/20 11:10:14;;;;;;;9.02;6.55;;;23.00;71.70;;;;;;5017155;28;20044;-84
2021/07/20 11:12:44;;;;;;;7.35;5.32;;;23.00;70.10;;;;;;4992311;28;20026;-84
2021/07/20 11:15:10;;;;;;;8.60;6.57;;;23.10;70.40;;;;;;5000856;28;20090;-84
2021/07/20 11:17:38;;;;;;;8.65;6.28;;;23.10;68.70;;;;;;5002698;28;20026;-84
2021/07/20 11:20:15;;;;;;;7.60;5.90;;;23.10;69.00;;;;;;4988014;28;20128;-84
2021/07/20 11:22:41;;;;;;;8.15;5.47;;;23.20;70.70;;;;;;4994674;28;20077;-84
2021/07/20 11:25:09;;;;;;;8.05;6.30;;;23.30;70.30;;;;;;4961241;28;20120;-84
2021/07/20 11:27:39;;;;;;;10.05;6.05;;;23.30;70.50;;;;;;4979777;28;20058;-84
2021/07/20 11:30:12;;;;;;;8.00;5.85;;;23.30;68.90;;;;;;4981133;28;20030;-84
2021/07/20 11:32:43;;;;;;;8.48;5.65;;;23.30;68.70;;;;;;4998269;28;20625;-85
2021/07/20 11:35:21;;;;;;;9.10;6.28;;;23.40;69.50;;;;;;5016278;28;20029;-85
2021/07/20 11:38:00;;;;;;;8.68;6.03;;;23.40;70.80;;;;;;4992814;28;20030;-84
2021/07/20 11:40:33;;;;;;;9.35;6.47;;;23.40;70.30;;;;;;4984368;28;20027;-84
2021/07/20 11:46:03;;;;;;;8.63;6.45;;;23.60;67.70;;;;;;4993665;28;20042;-86
2021/07/20 11:48:35;;;;;;;9.73;6.60;;;23.60;68.40;;;;;;4978241;28;20014;-86
2021/07/20 11:51:25;;;;;;;9.88;6.82;;;23.70;68.20;;;;;;4995931;28;20101;-86
2021/07/20 11:54:11;;;;;;;9.63;6.35;;;23.70;68.60;;;;;;4989889;28;20027;-87
2021/07/20 11:56:50;;;;;;;8.43;6.07;;;23.80;67.90;;;;;;4995221;28;20080;-86
2021/07/20 11:59:34;;;;;;;8.95;6.15;;;23.80;68.40;;;;;;4995664;28;20090;-85
2021/07/20 12:02:24;;;;;;;9.63;6.38;;;23.90;68.10;;;;;;4978224;28;20442;-85
2021/07/20 12:05:20;;;;;;;9.52;7.10;;;23.90;68.20;;;;;;4995605;28;20034;-86
2021/07/20 12:08:01;;;;;;;10.05;7.18;;;24.10;67.70;;;;;;4995347;28;20022;-87
2021/07/20 12:10:45;;;;;;;8.15;6.38;;;24.10;66.00;;;;;;4976352;28;20106;-86
2021/07/20 12:13:13;;;;;;;8.27;6.18;;;24.20;66.30;;;;;;4968603;28;20030;-86
2021/07/20 12:15:40;;;;;;;10.57;6.85;;;24.30;67.00;;;;;;4975898;28;20117;-86
2021/07/20 12:18:06;;;;;;;10.77;7.25;;;24.30;65.20;;;;;;4979866;28;20074;-86
2021/07/20 12:20:34;;;;;;;8.60;6.75;;;24.30;66.00;;;;;;4977617;28;20026;-86
2021/07/20 12:23:00;;;;;;;9.30;6.70;;;24.40;65.90;;;;;;4995037;28;20030;-86
2021/07/20 12:25:27;;;;;;;8.60;6.93;;;24.40;66.10;;;;;;4995382;28;20109;-86
2021/07/20 12:27:55;;;;;;;9.75;6.80;;;24.50;66.60;;;;;;4994857;28;20017;-86
2021/07/20 12:30:23;;;;;;;9.40;6.97;;;24.60;67.10;;;;;;4995263;28;20062;-86
2021/07/20 12:32:49;;;;;;;9.50;7.22;;;24.60;66.60;;;;;;4966137;28;20477;-87
2021/07/20 12:35:18;;;;;;;8.57;7.10;;;24.60;67.60;;;;;;4959745;28;20041;-87
2021/07/20 12:38:04;;;;;;;10.30;7.10;;;24.70;67.40;;;;;;4976773;28;20022;-87
2021/07/20 12:40:32;;;;;;;9.60;7.45;;;24.80;64.60;;;;;;4957483;28;20037;-87
2021/07/20 12:43:13;;;;;;;10.98;6.70;;;24.70;65.60;;;;;;4988313;28;20041;-85
2021/07/20 12:45:41;;;;;;;9.90;7.30;;;24.80;65.90;;;;;;4970825;28;20041;-86
2021/07/20 12:48:24;;;;;;;9.88;6.80;;;24.80;65.30;;;;;;4950841;28;20143;-86
2021/07/20 12:50:51;;;;;;;9.65;7.13;;;24.80;65.00;;;;;;4938759;29;20019;-86
2021/07/20 12:53:19;;;;;;;12.15;7.35;;;24.90;64.50;;;;;;4954389;28;20535;-86
2021/07/20 12:55:46;;;;;;;9.20;7.18;;;24.90;64.10;;;;;;4969491;28;20760;-86
2021/07/20 12:58:16;;;;;;;9.63;7.88;;;24.90;63.90;;;;;;4953954;28;20030;-86
2021/07/20 13:00:43;;;;;;;9.35;7.13;;;24.90;63.00;;;;;;4954194;28;20043;-87
2021/07/20 13:03:10;;;;;;;9.88;7.10;;;24.90;62.70;;;;;;4954292;28;20324;-85
2021/07/20 13:05:40;;;;;;;10.55;7.82;;;24.90;64.00;;;;;;4981306;28;20023;-85